Time;durP1;ratioP1;P1;durP2;ratioP2;P2;SDS_P1;SDS_P2;PMS_P1;PMS_P2;Temp;Humidity;BMP_temperature;BMP_pressure;BME280_temperature;BME280_humidity;BME280_pressure;Samples;Min_cycle;Max_cycle;Signal;HPM_P1;HPM_P2
2022/10/15 00:00:44;;;;;;;0.10;0.10;;;;;;;12.02;100.00;92500.94;2115749;27;20023;-75
2022/10/15 00:01:45;;;;;;;1.92;0.20;;;;;;;12.09;100.00;92495.31;2119119;27;20068;-77
2022/10/15 00:02:47;;;;;;;2.13;0.10;;;;;;;12.27;100.00;92497.31;2114964;27;20037;-75
2022/10/15 00:03:48;;;;;;;1.20;0.10;;;;;;;12.23;100.00;92494.78;2118098;27;20024;-74
2022/10/15 00:04:49;;;;;;;0.63;0.17;;;;;;;12.16;100.00;92494.28;2121125;27;20074;-76
2022/10/15 00:05:50;;;;;;;1.58;0.20;;;;;;;12.22;100.00;92504.00;2117296;27;20050;-76
2022/10/15 00:06:51;;;;;;;0.75;0.00;;;;;;;12.18;100.00;92499.97;2113027;27;20027;-75
2022/10/15 00:07:52;;;;;;;0.13;0.08;;;;;;;12.16;100.00;92499.66;2112524;27;20053;-76
2022/10/15 00:08:55;;;;;;;0.63;0.20;;;;;;;12.16;100.00;92495.06;2114787;27;20034;-75
2022/10/15 00:09:56;;;;;;;0.93;0.03;;;;;;;12.18;100.00;92502.66;2111848;27;20031;-76
2022/10/15 00:11:06;;;;;;;0.68;0.10;;;;;;;12.21;100.00;92496.41;2116232;27;20028;-76
2022/10/15 00:12:07;;;;;;;;;;;;;;;12.19;100.00;92501.44;2116687;27;20069;-79
2022/10/15 00:13:09;;;;;;;0.32;0.00;;;;;;;12.13;100.00;92492.50;2118076;27;19911;-77
2022/10/15 00:14:10;;;;;;;0.22;0.10;;;;;;;12.14;100.00;92489.38;2115744;27;20050;-77
2022/10/15 00:15:12;;;;;;;0.60;0.20;;;;;;;12.32;100.00;92489.44;2112703;27;20052;-76
2022/10/15 00:16:16;;;;;;;0.03;0.03;;;;;;;12.27;100.00;92492.72;2130761;27;20050;-75
2022/10/15 00:17:17;;;;;;;0.65;0.10;;;;;;;12.23;100.00;92489.41;2132500;27;20634;-76
2022/10/15 00:18:18;;;;;;;1.02;0.10;;;;;;;12.20;100.00;92487.59;2128308;27;20031;-75
2022/10/15 00:19:19;;;;;;;3.60;0.10;;;;;;;12.22;100.00;92484.50;2129823;27;20042;-77
2022/10/15 00:20:22;;;;;;;2.25;0.15;;;;;;;12.33;100.00;92490.94;2128807;27;20128;-74
2022/10/15 00:21:23;;;;;;;0.22;0.10;;;;;;;12.29;100.00;92495.72;2123527;27;20435;-75
2022/10/15 00:22:24;;;;;;;0.03;0.03;;;;;;;12.33;100.00;92490.19;2123380;27;20043;-75
2022/10/15 00:23:25;;;;;;;0.10;0.10;;;;;;;12.32;100.00;92496.75;2130117;27;20033;-77
2022/10/15 00:24:26;;;;;;;0.20;0.13;;;;;;;12.26;100.00;92485.13;2132713;27;20069;-75
2022/10/15 00:25:27;;;;;;;0.73;0.10;;;;;;;12.42;100.00;92494.84;2133004;27;20052;-75
2022/10/15 00:26:29;;;;;;;0.20;0.10;;;;;;;12.47;100.00;92486.22;2124358;27;20583;-76
2022/10/15 00:27:30;;;;;;;0.10;0.10;;;;;;;12.33;100.00;92480.22;2115423;27;20102;-75
2022/10/15 00:28:31;;;;;;;0.20;0.10;;;;;;;12.29;100.00;92486.91;2124176;27;20085;-75
2022/10/15 00:29:33;;;;;;;0.90;0.00;;;;;;;12.30;100.00;92493.78;2132644;27;20685;-75
2022/10/15 00:30:34;;;;;;;0.15;0.10;;;;;;;12.35;100.00;92491.25;2134910;27;20057;-75
2022/10/15 00:31:35;;;;;;;0.10;0.10;;;;;;;12.41;100.00;92487.97;2132726;27;20432;-76
2022/10/15 00:32:36;;;;;;;1.65;0.20;;;;;;;12.30;100.00;92493.78;2132749;27;20023;-75
2022/10/15 00:33:38;;;;;;;1.75;0.10;;;;;;;12.35;100.00;92493.19;2132129;27;20034;-75
2022/10/15 00:34:39;;;;;;;0.30;0.10;;;;;;;12.31;100.00;92492.56;2132782;27;20052;-74
2022/10/15 00:35:40;;;;;;;0.68;0.10;;;;;;;12.48;100.00;92498.44;2132796;27;20068;-74
2022/10/15 00:36:41;;;;;;;0.38;0.10;;;;;;;12.41;100.00;92493.34;2129876;27;20083;-75
2022/10/15 00:37:43;;;;;;;0.70;0.20;;;;;;;12.30;100.00;92499.88;2135727;27;20030;-75
2022/10/15 00:38:45;;;;;;;2.05;0.28;;;;;;;12.39;100.00;92493.06;2130324;27;20072;-74
2022/10/15 00:39:46;;;;;;;0.10;0.10;;;;;;;12.33;100.00;92495.53;2137301;27;20383;-77
2022/10/15 00:40:47;;;;;;;0.10;0.10;;;;;;;12.28;100.00;92488.09;2123766;27;20687;-74
2022/10/15 00:41:49;;;;;;;0.57;0.20;;;;;;;12.46;100.00;92490.09;2120110;27;20055;-75
2022/10/15 00:42:50;;;;;;;0.00;0.00;;;;;;;12.67;100.00;92497.28;2128858;27;20495;-77
2022/10/15 00:43:55;;;;;;;0.10;0.10;;;;;;;12.57;100.00;92487.75;2127921;27;20061;-76
2022/10/15 00:44:58;;;;;;;0.17;0.10;;;;;;;12.45;100.00;92489.34;2132118;27;20033;-75
2022/10/15 00:45:59;;;;;;;0.20;0.10;;;;;;;12.56;100.00;92494.28;2123250;27;20441;-74
2022/10/15 00:47:02;;;;;;;2.70;0.20;;;;;;;12.56;100.00;92492.34;2114830;27;20092;-75
2022/10/15 00:48:03;;;;;;;0.73;0.20;;;;;;;12.69;100.00;92494.19;2123890;27;20019;-74
2022/10/15 00:49:16;;;;;;;0.25;0.10;;;;;;;12.62;100.00;92489.09;2128391;27;20029;-75
2022/10/15 00:50:20;;;;;;;0.38;0.15;;;;;;;12.67;100.00;92493.88;2132270;27;20034;-74
2022/10/15 00:51:26;;;;;;;1.23;0.30;;;;;;;12.58;100.00;92497.25;2128440;27;20623;-74
2022/10/15 00:52:39;;;;;;;0.40;0.13;;;;;;;12.50;100.00;92488.75;2129548;27;20459;-74
2022/10/15 00:53:40;;;;;;;0.38;0.10;;;;;;;12.57;100.00;92495.78;2137142;27;20018;-74
2022/10/15 00:54:46;;;;;;;0.15;0.10;;;;;;;12.71;100.00;92499.84;2126369;27;20030;-74
2022/10/15 00:55:49;;;;;;;1.73;0.20;;;;;;;12.75;100.00;92487.03;2122535;27;20109;-73
2022/10/15 00:56:50;;;;;;;1.55;0.10;;;;;;;12.73;100.00;92486.72;2119235;27;20167;-74
2022/10/15 00:57:52;;;;;;;2.08;0.10;;;;;;;12.70;100.00;92490.31;2131703;27;20039;-73
2022/10/15 00:58:54;;;;;;;0.13;0.10;;;;;;;12.83;100.00;92485.56;2132732;27;20074;-75
2022/10/15 01:00:00;;;;;;;0.85;0.20;;;;;;;12.75;100.00;92492.41;2122935;27;20029;-75
2022/10/15 01:01:01;;;;;;;0.10;0.10;;;;;;;12.94;100.00;92490.47;2124195;27;20102;-75
2022/10/15 01:02:02;;;;;;;0.10;0.10;;;;;;;12.81;100.00;92485.97;2132439;27;20029;-73
2022/10/15 01:03:03;;;;;;;1.05;0.13;;;;;;;12.93;100.00;92495.09;2134356;27;20597;-74
2022/10/15 01:04:06;;;;;;;0.10;0.10;;;;;;;12.82;100.00;92484.06;2132177;27;20199;-74
2022/10/15 01:05:07;;;;;;;0.88;0.10;;;;;;;12.79;100.00;92490.31;2118679;27;20031;-74
2022/10/15 01:06:08;;;;;;;1.73;0.15;;;;;;;12.79;100.00;92493.00;2123892;27;20060;-74
2022/10/15 01:07:09;;;;;;;0.17;0.10;;;;;;;12.71;100.00;92499.84;2131305;27;20026;-75
2022/10/15 01:08:10;;;;;;;0.63;0.20;;;;;;;12.66;100.00;92493.13;2123618;27;20045;-74
2022/10/15 01:09:12;;;;;;;0.10;0.10;;;;;;;12.77;100.00;92490.75;2122550;27;20058;-75
2022/10/15 01:10:14;;;;;;;0.10;0.10;;;;;;;12.79;100.00;92495.69;2128402;27;20457;-75
2022/10/15 01:11:40;;;;;;;0.10;0.10;;;;;;;12.90;100.00;92482.56;2132629;27;20581;-74
2022/10/15 01:13:10;;;;;;;0.57;0.10;;;;;;;12.81;100.00;92482.56;2125667;27;20162;-74
2022/10/15 01:14:32;;;;;;;0.43;0.20;;;;;;;12.96;100.00;92486.16;2116939;27;20041;-75
2022/10/15 01:15:42;;;;;;;0.10;0.10;;;;;;;12.73;100.00;92482.13;2115689;27;20070;-73
2022/10/15 01:17:26;;;;;;;0.45;0.10;;;;;;;12.68;100.00;92479.25;2116890;27;20110;-74
2022/10/15 01:18:49;;;;;;;0.70;0.22;;;;;;;12.64;100.00;92481.34;2114679;27;20491;-74
2022/10/15 01:19:56;;;;;;;0.52;0.20;;;;;;;12.66;100.00;92477.03;2106400;27;20024;-74
2022/10/15 01:21:20;;;;;;;0.10;0.10;;;;;;;12.67;100.00;92477.78;2114571;27;20031;-75
2022/10/15 01:23:07;;;;;;;0.22;0.10;;;;;;;12.60;100.00;92468.09;2110909;27;20031;-73
2022/10/15 01:24:29;;;;;;;0.35;0.20;;;;;;;12.82;100.00;92479.44;2091229;28;20123;-75
2022/10/15 01:25:52;;;;;;;1.60;0.20;;;;;;;12.81;100.00;92485.97;2099755;27;20041;-74
2022/10/15 01:27:25;;;;;;;0.10;0.10;;;;;;;12.90;100.00;92487.94;2111544;27;20047;-74
2022/10/15 01:28:55;;;;;;;0.20;0.15;;;;;;;12.76;100.00;92480.47;2115474;27;20042;-74
2022/10/15 01:30:15;;;;;;;1.02;0.20;;;;;;;12.62;100.00;92478.38;2112090;27;20019;-73
2022/10/15 01:31:30;;;;;;;0.10;0.10;;;;;;;12.53;100.00;92479.09;2114321;27;20096;-76
2022/10/15 01:32:46;;;;;;;1.50;0.40;;;;;;;12.48;100.00;92479.69;2112943;27;20106;-73
2022/10/15 01:34:04;;;;;;;0.55;0.20;;;;;;;12.60;100.00;92486.84;2114871;27;20122;-74
2022/10/15 01:35:32;;;;;;;0.15;0.10;;;;;;;12.76;100.00;92488.50;2108335;27;20072;-73
2022/10/15 01:36:48;;;;;;;0.10;0.10;;;;;;;12.73;100.00;92484.03;2107150;27;20035;-75
2022/10/15 01:37:56;;;;;;;0.10;0.10;;;;;;;12.66;100.00;92490.44;2114719;27;20019;-73
2022/10/15 01:39:05;;;;;;;0.10;0.10;;;;;;;12.67;100.00;92477.78;2114381;27;20028;-74
2022/10/15 01:40:16;;;;;;;0.95;0.10;;;;;;;12.91;100.00;92476.03;2114041;27;20100;-74
2022/10/15 01:41:46;;;;;;;0.20;0.10;;;;;;;13.01;100.00;92477.53;2110705;27;20067;-73
2022/10/15 01:42:52;;;;;;;0.13;0.10;;;;;;;12.93;100.00;92465.59;2115100;27;20039;-74
2022/10/15 01:44:01;;;;;;;1.45;0.30;;;;;;;12.81;100.00;92485.25;2111515;27;20042;-74
2022/10/15 01:45:07;;;;;;;0.10;0.10;;;;;;;12.88;100.00;92482.28;2116344;27;20042;-73
2022/10/15 01:46:18;;;;;;;1.85;0.10;;;;;;;12.72;100.00;92479.88;2116246;27;20023;-74
2022/10/15 01:47:28;;;;;;;0.30;0.20;;;;;;;12.65;100.00;92486.28;2115932;27;20157;-77
2022/10/15 01:48:32;;;;;;;1.05;0.10;;;;;;;12.72;100.00;92483.28;2113181;27;20035;-74
2022/10/15 01:49:39;;;;;;;0.85;0.52;;;;;;;12.71;100.00;92484.47;2111537;27;20477;-74
2022/10/15 01:50:50;;;;;;;0.40;0.10;;;;;;;12.68;100.00;92489.97;2116895;27;20054;-74
2022/10/15 01:51:54;;;;;;;0.20;0.20;;;;;;;12.74;100.00;92483.59;2121034;27;20023;-75
2022/10/15 01:52:57;;;;;;;1.88;0.20;;;;;;;12.66;100.00;92489.69;2118416;27;20085;-74
2022/10/15 01:54:00;;;;;;;0.30;0.08;;;;;;;12.72;100.00;92483.28;2117751;27;20101;-74
2022/10/15 01:55:04;;;;;;;1.17;0.20;;;;;;;12.59;100.00;92486.09;2118637;27;20495;-75
2022/10/15 01:56:10;;;;;;;0.10;0.10;;;;;;;12.58;100.00;92491.91;2118360;27;20026;-74
2022/10/15 01:57:13;;;;;;;0.52;0.28;;;;;;;12.48;100.00;92480.41;2113762;27;20074;-75
2022/10/15 01:58:16;;;;;;;2.03;0.25;;;;;;;12.53;100.00;92490.56;2122177;27;20031;-74
2022/10/15 01:59:21;;;;;;;0.70;0.15;;;;;;;12.53;100.00;92479.09;2116709;27;20050;-74
2022/10/15 02:00:22;;;;;;;0.45;0.20;;;;;;;12.69;100.00;92486.13;2113799;27;20058;-74
2022/10/15 02:01:23;;;;;;;0.55;0.28;;;;;;;12.64;100.00;92476.72;2121671;27;20542;-74
2022/10/15 02:02:24;;;;;;;0.20;0.20;;;;;;;12.53;100.00;92479.84;2115026;27;20031;-74
2022/10/15 02:03:25;;;;;;;0.10;0.10;;;;;;;12.55;100.00;92474.75;2122239;27;20031;-76
2022/10/15 02:04:31;;;;;;;0.10;0.10;;;;;;;12.43;100.00;92481.00;2117637;27;20471;-74
2022/10/15 02:05:37;;;;;;;1.88;0.20;;;;;;;12.45;100.00;92492.00;2117453;27;20453;-76
2022/10/15 02:06:42;;;;;;;0.20;0.15;;;;;;;12.50;100.00;92464.63;2116880;27;20106;-75
2022/10/15 02:07:51;;;;;;;0.10;0.10;;;;;;;12.69;100.00;92470.03;2112122;28;20394;-76
2022/10/15 02:08:59;;;;;;;0.28;0.20;;;;;;;12.47;100.00;92470.16;2112753;27;20062;-75
2022/10/15 02:10:16;;;;;;;0.38;0.20;;;;;;;12.63;100.00;92477.16;2117846;27;20086;-74
2022/10/15 02:11:18;;;;;;;0.85;0.40;;;;;;;12.55;100.00;92472.06;2117262;27;20023;-76
2022/10/15 02:12:25;;;;;;;0.10;0.10;;;;;;;12.60;100.00;92471.53;2116727;28;20036;-74
2022/10/15 02:13:26;;;;;;;0.38;0.20;;;;;;;12.45;100.00;92483.22;2113131;27;20023;-73
2022/10/15 02:16:06;;;;;;;;;;;;;;;12.42;100.00;92474.13;2146695;27;21071;-73
2022/10/15 02:17:09;;;;;;;0.20;0.20;;;;;;;12.63;100.00;92477.91;2141888;27;19915;-72
2022/10/15 02:18:30;;;;;;;3.65;0.20;;;;;;;12.50;100.00;92474.59;2141426;27;20380;-74
2022/10/15 02:19:50;;;;;;;1.25;0.20;;;;;;;12.49;100.00;92463.13;2137884;27;20042;-72
2022/10/15 02:21:04;;;;;;;0.43;0.20;;;;;;;12.29;100.00;92474.28;2129335;27;20476;-73
2022/10/15 02:22:12;;;;;;;0.10;0.10;;;;;;;12.27;100.00;92465.16;2141793;27;20037;-74
2022/10/15 02:23:21;;;;;;;1.45;0.20;;;;;;;12.15;100.00;92472.13;2141177;27;20093;-73
2022/10/15 02:24:26;;;;;;;0.20;0.20;;;;;;;12.07;100.00;92465.53;2127850;27;20129;-72
2022/10/15 02:25:28;;;;;;;0.20;0.20;;;;;;;12.05;100.00;92463.28;2132917;27;20019;-72
2022/10/15 02:26:29;;;;;;;0.50;0.20;;;;;;;12.04;100.00;92464.50;2141770;27;20042;-72
2022/10/15 02:27:33;;;;;;;2.40;0.20;;;;;;;12.06;100.00;92469.41;2141624;27;20042;-72
2022/10/15 02:28:37;;;;;;;0.20;0.20;;;;;;;12.12;100.00;92469.59;2141763;27;20453;-72
2022/10/15 02:29:40;;;;;;;0.50;0.15;;;;;;;12.01;100.00;92464.63;2140504;27;20022;-72
2022/10/15 02:30:44;;;;;;;0.32;0.32;;;;;;;11.94;100.00;92476.34;2142598;27;20030;-72
2022/10/15 02:31:47;;;;;;;0.13;0.13;;;;;;;11.91;100.00;92474.56;2143559;27;20079;-73
2022/10/15 02:32:53;;;;;;;1.08;0.30;;;;;;;12.01;100.00;92470.72;2138567;27;20069;-73
2022/10/15 02:33:59;;;;;;;1.23;0.47;;;;;;;12.04;100.00;92474.47;2139310;27;20371;-72
2022/10/15 02:35:02;;;;;;;2.33;0.28;;;;;;;11.98;100.00;92465.50;2145698;27;20506;-72
2022/10/15 02:36:03;;;;;;;1.65;0.20;;;;;;;11.98;100.00;92468.91;2144040;27;20026;-73
2022/10/15 02:37:07;;;;;;;0.68;0.20;;;;;;;11.93;100.00;92472.16;2141436;27;20049;-72
2022/10/15 02:38:12;;;;;;;1.20;0.28;;;;;;;12.16;100.00;92475.53;2141443;27;20030;-72
2022/10/15 02:39:20;;;;;;;0.10;0.10;;;;;;;12.16;100.00;92478.22;2141461;27;20429;-74
2022/10/15 02:40:26;;;;;;;0.10;0.10;;;;;;;12.15;100.00;92482.09;2137077;27;20083;-73
2022/10/15 02:41:29;;;;;;;0.65;0.20;;;;;;;12.19;100.00;92483.44;2141526;27;20022;-72
2022/10/15 02:42:30;;;;;;;0.38;0.20;;;;;;;12.15;100.00;92484.75;2141189;27;20037;-73
2022/10/15 02:43:31;;;;;;;1.33;0.20;;;;;;;12.01;100.00;92486.78;2141530;27;20114;-73
2022/10/15 02:44:32;;;;;;;4.68;0.22;;;;;;;11.91;100.00;92479.91;2141494;27;20034;-72
2022/10/15 02:45:33;;;;;;;0.17;0.17;;;;;;;11.90;100.00;92488.38;2133173;27;20113;-74
2022/10/15 02:46:33;;;;;;;1.65;0.20;;;;;;;12.17;100.00;92485.81;2141539;27;20022;-73
2022/10/15 02:47:34;;;;;;;2.15;0.10;;;;;;;12.35;100.00;92490.50;2141725;27;20383;-72
2022/10/15 02:48:36;;;;;;;0.10;0.10;;;;;;;12.18;100.00;92490.00;2141150;27;20091;-72
2022/10/15 02:49:37;;;;;;;1.10;0.20;;;;;;;12.08;100.00;92491.16;2128378;27;20126;-73
2022/10/15 02:50:38;;;;;;;0.10;0.10;;;;;;;12.23;100.00;92480.63;2131381;27;20132;-73
2022/10/15 02:51:40;;;;;;;0.10;0.10;;;;;;;12.27;100.00;92486.59;2132324;27;20368;-72
2022/10/15 02:52:40;;;;;;;0.10;0.10;;;;;;;12.32;100.00;92502.09;2132496;27;20056;-73
2022/10/15 02:53:41;;;;;;;0.70;0.17;;;;;;;12.43;100.00;92493.66;2141561;27;20022;-73
2022/10/15 02:54:42;;;;;;;0.20;0.20;;;;;;;12.26;100.00;92493.16;2140874;27;20033;-73
2022/10/15 02:55:45;;;;;;;1.02;0.10;;;;;;;12.14;100.00;92496.66;2140222;27;20042;-74
2022/10/15 02:56:46;;;;;;;2.08;0.20;;;;;;;12.04;100.00;92503.94;2132161;27;20026;-72
2022/10/15 02:57:47;;;;;;;0.43;0.22;;;;;;;11.96;100.00;92503.44;2124043;27;20027;-73
2022/10/15 02:58:48;;;;;;;0.28;0.28;;;;;;;12.12;100.00;92499.06;2132137;27;20018;-73
2022/10/15 02:59:49;;;;;;;0.10;0.10;;;;;;;12.02;100.00;92506.28;2141574;27;20419;-73
2022/10/15 03:00:50;;;;;;;0.73;0.20;;;;;;;11.99;100.00;92507.19;2136865;27;20052;-74
2022/10/15 03:01:51;;;;;;;0.45;0.20;;;;;;;12.02;100.00;92499.00;2140963;27;20058;-73
2022/10/15 03:02:52;;;;;;;0.20;0.20;;;;;;;12.02;100.00;92499.00;2127914;27;20054;-73
2022/10/15 03:03:53;;;;;;;0.20;0.10;;;;;;;12.06;100.00;92504.22;2132757;27;20099;-75
2022/10/15 03:04:54;;;;;;;0.73;0.10;;;;;;;12.00;100.00;92501.38;2141714;27;20053;-73
2022/10/15 03:05:55;;;;;;;0.82;0.20;;;;;;;11.97;100.00;92498.81;2136417;27;20019;-73
2022/10/15 03:06:56;;;;;;;1.45;0.10;;;;;;;11.95;100.00;92501.22;2137852;27;20046;-74
2022/10/15 03:08:01;;;;;;;0.35;0.30;;;;;;;11.94;100.00;92499.69;2141182;27;20393;-73
2022/10/15 03:09:02;;;;;;;0.13;0.13;;;;;;;12.07;100.00;92503.03;2140770;27;20498;-75
2022/10/15 03:10:05;;;;;;;0.20;0.20;;;;;;;12.18;100.00;92500.72;2138732;27;20554;-74
2022/10/15 03:11:06;;;;;;;0.10;0.10;;;;;;;12.12;100.00;92501.75;2140466;27;20031;-74
2022/10/15 03:12:07;;;;;;;0.17;0.17;;;;;;;12.09;100.00;92504.09;2140976;27;20031;-73
2022/10/15 03:13:08;;;;;;;0.13;0.13;;;;;;;12.05;100.00;92500.06;2141325;27;20033;-74
2022/10/15 03:14:09;;;;;;;2.28;0.20;;;;;;;12.12;100.00;92496.38;2141252;27;20030;-76
2022/10/15 03:15:10;;;;;;;0.20;0.20;;;;;;;12.24;100.00;92506.22;2140437;27;20027;-73
2022/10/15 03:16:11;;;;;;;0.77;0.20;;;;;;;12.12;100.00;92499.81;2137553;27;20030;-72
2022/10/15 03:17:12;;;;;;;0.30;0.20;;;;;;;12.07;100.00;92498.44;2141048;27;20026;-75
2022/10/15 03:18:13;;;;;;;0.25;0.15;;;;;;;12.08;100.00;92510.66;2141287;27;20491;-72
2022/10/15 03:19:14;;;;;;;0.10;0.10;;;;;;;12.08;100.00;92499.94;2138961;27;20030;-73
2022/10/15 03:20:15;;;;;;;1.05;0.13;;;;;;;12.14;100.00;92502.03;2143705;27;20535;-73
2022/10/15 03:21:16;;;;;;;1.85;0.20;;;;;;;12.11;100.00;92503.66;2136714;27;20724;-73
2022/10/15 03:22:18;;;;;;;1.83;0.20;;;;;;;12.13;100.00;92505.91;2141249;27;20034;-72
2022/10/15 03:23:19;;;;;;;2.42;0.10;;;;;;;12.04;100.00;92502.00;2141406;27;20034;-73
2022/10/15 03:24:20;;;;;;;0.45;0.10;;;;;;;12.02;100.00;92503.59;2141100;27;20055;-73
2022/10/15 03:25:21;;;;;;;0.10;0.10;;;;;;;12.03;100.00;92497.84;2137060;27;20030;-73
2022/10/15 03:26:22;;;;;;;0.32;0.17;;;;;;;12.02;100.00;92507.03;2139553;27;20037;-73
2022/10/15 03:27:24;;;;;;;0.40;0.13;;;;;;;11.98;100.00;92497.63;2138820;27;20031;-74
2022/10/15 03:28:25;;;;;;;1.75;0.25;;;;;;;11.98;100.00;92500.31;2135322;27;20081;-73
2022/10/15 03:29:26;;;;;;;1.10;0.10;;;;;;;11.97;100.00;92488.84;2135338;27;20653;-74
2022/10/15 03:30:27;;;;;;;0.20;0.20;;;;;;;12.02;100.00;92501.66;2135437;27;20074;-76
2022/10/15 03:31:28;;;;;;;0.10;0.10;;;;;;;12.16;100.00;92502.31;2125633;27;20403;-73
2022/10/15 03:32:29;;;;;;;0.55;0.20;;;;;;;12.18;100.00;92508.00;2122965;27;20019;-72
2022/10/15 03:33:30;;;;;;;0.20;0.10;;;;;;;12.20;100.00;92508.28;2134990;27;20026;-73
2022/10/15 03:34:31;;;;;;;1.30;0.20;;;;;;;12.14;100.00;92499.34;2135095;27;20058;-74
2022/10/15 03:35:32;;;;;;;0.10;0.10;;;;;;;12.16;100.00;92507.69;2135191;27;20031;-73
2022/10/15 03:36:33;;;;;;;0.38;0.10;;;;;;;12.41;100.00;92509.44;2135448;27;20042;-72
2022/10/15 03:37:34;;;;;;;0.28;0.10;;;;;;;12.45;100.00;92505.41;2133947;27;20037;-72
2022/10/15 03:38:35;;;;;;;3.13;0.10;;;;;;;12.45;100.00;92502.00;2135330;27;20052;-72
2022/10/15 03:39:36;;;;;;;2.92;0.20;;;;;;;12.39;100.00;92501.09;2134826;27;20805;-72
2022/10/15 03:40:37;;;;;;;1.60;0.10;;;;;;;12.35;100.00;92501.22;2137491;27;20518;-73
2022/10/15 03:41:39;;;;;;;0.98;0.50;;;;;;;12.31;100.00;92501.34;2137274;27;20038;-73
2022/10/15 03:42:40;;;;;;;0.52;0.20;;;;;;;12.25;100.00;92508.50;2132816;27;20026;-73
2022/10/15 03:43:42;;;;;;;0.45;0.10;;;;;;;12.15;100.00;92501.59;2126079;27;20483;-74
2022/10/15 03:44:42;;;;;;;0.10;0.10;;;;;;;12.35;100.00;92509.25;2126436;27;20102;-74
2022/10/15 03:45:43;;;;;;;0.70;0.20;;;;;;;12.16;100.00;92503.09;2136607;27;20101;-76
2022/10/15 03:46:45;;;;;;;0.10;0.10;;;;;;;12.16;100.00;92502.31;2136137;27;20383;-73
2022/10/15 03:47:45;;;;;;;0.10;0.10;;;;;;;12.19;100.00;92502.19;2135686;27;20038;-75
2022/10/15 03:48:49;;;;;;;0.28;0.20;;;;;;;12.43;100.00;92501.69;2135694;27;20025;-74
2022/10/15 03:49:51;;;;;;;0.40;0.20;;;;;;;12.39;100.00;92504.53;2132704;27;20105;-77
2022/10/15 03:50:52;;;;;;;0.10;0.10;;;;;;;12.27;100.00;92506.09;2131718;27;20371;-74
2022/10/15 03:51:53;;;;;;;0.73;0.30;;;;;;;12.38;100.00;92507.63;2125928;27;20019;-74
2022/10/15 03:52:53;;;;;;;0.52;0.20;;;;;;;12.31;100.00;92504.03;2124844;27;20029;-74
2022/10/15 03:53:54;;;;;;;2.20;0.20;;;;;;;12.27;100.00;92508.03;2135050;27;20022;-76
2022/10/15 03:54:55;;;;;;;0.55;0.17;;;;;;;12.17;100.00;92507.25;2135256;27;20047;-75
2022/10/15 03:56:03;;;;;;;0.38;0.30;;;;;;;12.17;100.00;92506.53;2135199;27;20105;-74
2022/10/15 03:57:04;;;;;;;1.65;0.17;;;;;;;12.12;100.00;92509.78;2135349;27;20023;-76
2022/10/15 03:58:05;;;;;;;0.63;0.10;;;;;;;12.07;100.00;92503.81;2132928;27;20517;-75
2022/10/15 03:59:06;;;;;;;0.60;0.20;;;;;;;12.05;100.00;92505.41;2137468;27;20524;-75
2022/10/15 04:00:08;;;;;;;1.33;0.17;;;;;;;12.06;100.00;92509.56;2135575;27;20062;-76
2022/10/15 04:01:13;;;;;;;1.58;0.20;;;;;;;12.14;100.00;92510.06;2135714;27;20018;-74
2022/10/15 04:02:15;;;;;;;1.10;0.20;;;;;;;12.15;100.00;92511.56;2135694;27;20040;-75
2022/10/15 04:03:15;;;;;;;0.20;0.20;;;;;;;12.13;100.00;92513.94;2132476;27;20038;-75
2022/10/15 04:04:16;;;;;;;2.30;0.20;;;;;;;12.08;100.00;92513.31;2134637;27;20072;-74
2022/10/15 04:05:17;;;;;;;1.17;0.30;;;;;;;12.08;100.00;92509.91;2125903;27;20031;-76
2022/10/15 04:06:19;;;;;;;0.10;0.10;;;;;;;12.02;100.00;92515.06;2108558;28;20077;-74
2022/10/15 04:07:20;;;;;;;0.82;0.20;;;;;;;12.00;100.00;92524.75;2117565;27;20171;-74
2022/10/15 04:08:21;;;;;;;0.77;0.10;;;;;;;11.96;100.00;92513.41;2122370;27;20061;-76
2022/10/15 04:09:22;;;;;;;0.25;0.10;;;;;;;12.01;100.00;92518.19;2134978;27;20232;-76
2022/10/15 04:10:24;;;;;;;1.77;0.25;;;;;;;11.97;100.00;92518.31;2135034;27;20062;-75
2022/10/15 04:11:25;;;;;;;2.42;0.15;;;;;;;11.96;100.00;92518.75;2134729;27;20035;-76
2022/10/15 04:12:26;;;;;;;0.10;0.10;;;;;;;11.95;100.00;92519.97;2134873;27;20376;-75
2022/10/15 04:13:27;;;;;;;0.35;0.20;;;;;;;11.92;100.00;92510.09;2134178;27;20027;-75
2022/10/15 04:14:28;;;;;;;1.83;0.20;;;;;;;11.97;100.00;92514.91;2134963;27;20027;-75
2022/10/15 04:15:29;;;;;;;1.08;0.20;;;;;;;12.05;100.00;92514.19;2134658;27;20038;-75
2022/10/15 04:16:30;;;;;;;0.60;0.20;;;;;;;12.03;100.00;92524.63;2135001;27;20065;-77
2022/10/15 04:17:33;;;;;;;1.17;0.20;;;;;;;12.01;100.00;92518.94;2135192;27;20066;-75
2022/10/15 04:18:34;;;;;;;1.58;0.17;;;;;;;11.95;100.00;92509.97;2133762;27;20039;-75
2022/10/15 04:19:35;;;;;;;0.35;0.20;;;;;;;12.21;100.00;92520.53;2132470;27;20034;-76
2022/10/15 04:20:37;;;;;;;2.10;0.50;;;;;;;12.38;100.00;92526.38;2135267;27;20640;-75
2022/10/15 04:21:38;;;;;;;1.00;0.20;;;;;;;12.29;100.00;92525.19;2135131;27;20086;-72
2022/10/15 04:22:39;;;;;;;0.55;0.20;;;;;;;12.15;100.00;92525.69;2136296;27;20083;-74
2022/10/15 04:23:40;;;;;;;0.32;0.30;;;;;;;12.08;100.00;92531.34;2137267;27;20038;-76
2022/10/15 04:24:40;;;;;;;0.77;0.20;;;;;;;12.05;100.00;92526.84;2136183;27;20037;-77
2022/10/15 04:25:41;;;;;;;0.20;0.20;;;;;;;12.02;100.00;92531.13;2136642;27;20035;-76
2022/10/15 04:26:42;;;;;;;1.20;0.20;;;;;;;12.13;100.00;92530.75;2134056;27;20126;-77
2022/10/15 04:27:43;;;;;;;1.15;0.30;;;;;;;12.07;100.00;92530.59;2140011;27;20441;-75
2022/10/15 04:28:47;;;;;;;0.30;0.20;;;;;;;12.04;100.00;92536.81;2135243;27;20416;-75
2022/10/15 04:29:48;;;;;;;1.17;0.20;;;;;;;11.98;100.00;92535.88;2136401;27;20066;-76
2022/10/15 04:30:49;;;;;;;1.15;0.20;;;;;;;12.07;100.00;92537.84;2134685;27;20037;-76
2022/10/15 04:31:50;;;;;;;0.17;0.17;;;;;;;12.04;100.00;92536.81;2125451;27;20061;-75
2022/10/15 04:32:51;;;;;;;2.92;0.22;;;;;;;11.99;100.00;92539.31;2121656;27;20034;-75
2022/10/15 04:33:52;;;;;;;0.20;0.20;;;;;;;11.95;100.00;92538.69;2134957;27;20032;-75
2022/10/15 04:34:53;;;;;;;2.97;0.57;;;;;;;11.93;100.00;92536.44;2130325;27;20600;-75
2022/10/15 04:36:03;;;;;;;0.38;0.20;;;;;;;11.90;100.00;92548.06;2134879;27;20118;-77
2022/10/15 04:37:06;;;;;;;0.22;0.22;;;;;;;11.90;100.00;92533.91;2135056;27;20022;-76
2022/10/15 04:38:07;;;;;;;0.20;0.20;;;;;;;11.89;100.00;92543.84;2134751;27;20039;-76
2022/10/15 04:39:08;;;;;;;0.90;0.30;;;;;;;11.90;100.00;92547.31;2133502;27;20046;-73
2022/10/15 04:40:09;;;;;;;2.30;0.30;;;;;;;11.89;100.00;92532.41;2122233;27;20023;-74
2022/10/15 04:41:11;;;;;;;4.68;0.20;;;;;;;11.89;100.00;92533.16;2125689;27;20038;-71
2022/10/15 04:42:12;;;;;;;2.92;0.63;;;;;;;11.90;100.00;92536.59;2134935;27;20014;-76
2022/10/15 04:43:13;;;;;;;0.80;0.20;;;;;;;11.89;100.00;92541.19;2125246;27;20115;-74
2022/10/15 04:44:14;;;;;;;0.43;0.30;;;;;;;11.87;100.00;92546.25;2116736;27;20031;-75
2022/10/15 04:45:15;;;;;;;1.02;0.30;;;;;;;11.89;100.00;92543.84;2124648;27;20456;-74
2022/10/15 04:46:16;;;;;;;2.05;0.35;;;;;;;11.88;100.00;92539.69;2134846;27;20030;-72
2022/10/15 04:47:18;;;;;;;0.20;0.20;;;;;;;11.88;100.00;92537.00;2134870;27;20026;-75
2022/10/15 04:48:20;;;;;;;0.55;0.40;;;;;;;11.87;100.00;92540.13;2134802;27;20433;-74
2022/10/15 04:49:21;;;;;;;0.70;0.45;;;;;;;11.88;100.00;92533.59;2123606;27;20027;-74
2022/10/15 04:50:22;;;;;;;0.98;0.40;;;;;;;11.90;100.00;92545.38;2133613;27;20456;-75
2022/10/15 04:51:24;;;;;;;0.70;0.35;;;;;;;11.89;100.00;92541.19;2134453;27;20391;-74
2022/10/15 04:52:25;;;;;;;0.30;0.30;;;;;;;11.86;100.00;92539.41;2134727;27;20034;-73
2022/10/15 04:53:26;;;;;;;1.38;0.20;;;;;;;11.89;100.00;92556.50;2134951;27;20029;-73
2022/10/15 04:54:27;;;;;;;0.32;0.32;;;;;;;11.87;100.00;92546.25;2134947;27;20079;-75
2022/10/15 04:55:29;;;;;;;0.38;0.30;;;;;;;11.88;100.00;92546.97;2133880;27;20043;-74
2022/10/15 04:56:30;;;;;;;0.93;0.25;;;;;;;11.87;100.00;92550.84;2134176;27;20048;-74
2022/10/15 04:57:31;;;;;;;1.15;0.20;;;;;;;11.85;100.00;92545.91;2134430;27;20034;-74
2022/10/15 04:58:33;;;;;;;0.28;0.15;;;;;;;11.83;100.00;92546.38;2134716;27;20027;-75
2022/10/15 04:59:34;;;;;;;2.83;0.30;;;;;;;11.81;100.00;92547.97;2134336;27;20066;-79
2022/10/15 05:00:36;;;;;;;1.73;0.20;;;;;;;11.82;100.00;92552.13;2125052;27;20074;-74